sensor_id;sensor_type;location;lat;lon;timestamp;pressure;altitude;pressure_sealevel;temperature;humidity
43312;BME280;30041;48.300;16.352;2023-04-25T00:02:05;99014.16;;;22.98;44.51
43312;BME280;30041;48.300;16.352;2023-04-25T00:04:31;99012.56;;;22.97;44.45
43312;BME280;30041;48.300;16.352;2023-04-25T00:06:56;99012.56;;;22.97;44.29
43312;BME280;30041;48.300;16.352;2023-04-25T00:09:22;99015.25;;;22.97;44.62
43312;BME280;30041;48.300;16.352;2023-04-25T00:11:48;99013.63;;;22.96;44.46
43312;BME280;30041;48.300;16.352;2023-04-25T00:14:14;99013.38;;;22.98;44.57
43312;BME280;30041;48.300;16.352;2023-04-25T00:16:39;99022.28;;;22.98;44.27
43312;BME280;30041;48.300;16.352;2023-04-25T00:19:05;99016.06;;;22.98;44.50
43312;BME280;30041;48.300;16.352;2023-04-25T00:21:30;99011.72;;;22.97;44.51
43312;BME280;30041;48.300;16.352;2023-04-25T00:23:56;99005.25;;;22.98;44.37
43312;BME280;30041;48.300;16.352;2023-04-25T00:26:21;99006.31;;;22.97;44.46
43312;BME280;30041;48.300;16.352;2023-04-25T00:28:47;99007.97;;;22.98;44.32
43312;BME280;30041;48.300;16.352;2023-04-25T00:31:13;99003.63;;;22.97;44.46
43312;BME280;30041;48.300;16.352;2023-04-25T00:33:39;99006.59;;;22.95;44.29
43312;BME280;30041;48.300;16.352;2023-04-25T00:36:04;99004.44;;;22.97;44.35
43312;BME280;30041;48.300;16.352;2023-04-25T00:38:30;99000.09;;;22.96;44.12
43312;BME280;30041;48.300;16.352;2023-04-25T00:40:55;99002.00;;;22.96;44.26
43312;BME280;30041;48.300;16.352;2023-04-25T00:43:21;98998.50;;;22.95;44.26
43312;BME280;30041;48.300;16.352;2023-04-25T00:45:47;99000.09;;;22.96;44.46
43312;BME280;30041;48.300;16.352;2023-04-25T00:48:14;98996.34;;;22.97;44.39
43312;BME280;30041;48.300;16.352;2023-04-25T00:50:39;98997.16;;;22.98;44.70
43312;BME280;30041;48.300;16.352;2023-04-25T00:53:05;99002.81;;;22.96;44.43
43312;BME280;30041;48.300;16.352;2023-04-25T00:55:31;99000.09;;;22.96;44.39
43312;BME280;30041;48.300;16.352;2023-04-25T00:57:57;98999.06;;;22.97;44.54
43312;BME280;30041;48.300;16.352;2023-04-25T01:00:23;99001.75;;;22.97;44.32
43312;BME280;30041;48.300;16.352;2023-04-25T01:02:49;99003.91;;;22.95;44.39
43312;BME280;30041;48.300;16.352;2023-04-25T01:05:14;98998.50;;;22.95;44.38
43312;BME280;30041;48.300;16.352;2023-04-25T01:07:40;99006.59;;;22.95;44.54
43312;BME280;30041;48.300;16.352;2023-04-25T01:10:06;99002.81;;;22.96;44.22
43312;BME280;30041;48.300;16.352;2023-04-25T01:12:32;99009.31;;;22.95;44.54
43312;BME280;30041;48.300;16.352;2023-04-25T01:14:57;99010.38;;;22.94;44.60
43312;BME280;30041;48.300;16.352;2023-04-25T01:17:23;99000.09;;;22.96;44.36
43312;BME280;30041;48.300;16.352;2023-04-25T01:19:48;98998.50;;;22.95;44.28
43312;BME280;30041;48.300;16.352;2023-04-25T01:22:14;98996.59;;;22.96;44.44
43312;BME280;30041;48.300;16.352;2023-04-25T01:24:40;99002.81;;;22.96;44.24
43312;BME280;30041;48.300;16.352;2023-04-25T01:27:07;98997.41;;;22.96;44.04
43312;BME280;30041;48.300;16.352;2023-04-25T01:29:33;99003.91;;;22.95;44.32
43312;BME280;30041;48.300;16.352;2023-04-25T01:32:00;98997.97;;;22.98;44.24
43312;BME280;30041;48.300;16.352;2023-04-25T01:34:26;99000.91;;;22.97;44.07
43312;BME280;30041;48.300;16.352;2023-04-25T01:36:52;99002.00;;;22.96;44.03
43312;BME280;30041;48.300;16.352;2023-04-25T01:39:18;99000.91;;;22.97;44.13
43312;BME280;30041;48.300;16.352;2023-04-25T01:41:45;98991.44;;;22.94;44.46
43312;BME280;30041;48.300;16.352;2023-04-25T01:44:10;99001.19;;;22.95;44.18
43312;BME280;30041;48.300;16.352;2023-04-25T01:46:36;99002.00;;;22.96;44.31
43312;BME280;30041;48.300;16.352;2023-04-25T01:49:02;98995.78;;;22.95;44.33
43312;BME280;30041;48.300;16.352;2023-04-25T01:51:28;98996.59;;;22.96;44.18
43312;BME280;30041;48.300;16.352;2023-04-25T01:53:53;98993.09;;;22.95;44.18
43312;BME280;30041;48.300;16.352;2023-04-25T01:56:20;98996.03;;;22.94;44.33
43312;BME280;30041;48.300;16.352;2023-04-25T01:58:46;98998.50;;;22.95;44.31
43312;BME280;30041;48.300;16.352;2023-04-25T02:01:11;98991.19;;;22.96;44.26
43312;BME280;30041;48.300;16.352;2023-04-25T02:03:37;98989.28;;;22.96;44.45
43312;BME280;30041;48.300;16.352;2023-04-25T02:06:02;98994.16;;;22.94;44.26
43312;BME280;30041;48.300;16.352;2023-04-25T02:08:28;98990.38;;;22.95;44.40
43312;BME280;30041;48.300;16.352;2023-04-25T02:10:53;98993.34;;;22.94;44.17
43312;BME280;30041;48.300;16.352;2023-04-25T02:13:19;98993.09;;;22.95;44.24
43312;BME280;30041;48.300;16.352;2023-04-25T02:15:44;98994.16;;;22.94;44.20
43312;BME280;30041;48.300;16.352;2023-04-25T02:18:09;98993.09;;;22.95;44.19
43312;BME280;30041;48.300;16.352;2023-04-25T02:20:35;98989.84;;;22.93;44.47
43312;BME280;30041;48.300;16.352;2023-04-25T02:23:01;98994.16;;;22.94;44.11
43312;BME280;30041;48.300;16.352;2023-04-25T02:25:27;98992.53;;;22.93;44.38
43312;BME280;30041;48.300;16.352;2023-04-25T02:27:52;98990.63;;;22.94;44.33
43312;BME280;30041;48.300;16.352;2023-04-25T02:30:18;98984.16;;;22.95;44.18
43312;BME280;30041;48.300;16.352;2023-04-25T02:32:43;98984.16;;;22.95;44.03
43312;BME280;30041;48.300;16.352;2023-04-25T02:35:09;98989.84;;;22.93;44.37
43312;BME280;30041;48.300;16.352;2023-04-25T02:37:35;98983.59;;;22.93;44.19
43312;BME280;30041;48.300;16.352;2023-04-25T02:40:02;98986.28;;;22.93;44.20
43312;BME280;30041;48.300;16.352;2023-04-25T02:42:27;98983.59;;;22.93;44.07
43312;BME280;30041;48.300;16.352;2023-04-25T02:44:53;98984.44;;;22.93;43.96
43312;BME280;30041;48.300;16.352;2023-04-25T02:47:18;98984.44;;;22.93;44.38
43312;BME280;30041;48.300;16.352;2023-04-25T02:49:44;98982.22;;;22.90;44.49
43312;BME280;30041;48.300;16.352;2023-04-25T02:52:10;98979.03;;;22.93;44.03
43312;BME280;30041;48.300;16.352;2023-04-25T02:54:35;98980.09;;;22.92;44.39
43312;BME280;30041;48.300;16.352;2023-04-25T02:57:01;98979.84;;;22.94;44.21
43312;BME280;30041;48.300;16.352;2023-04-25T02:59:26;98976.88;;;22.95;44.04
43312;BME280;30041;48.300;16.352;2023-04-25T03:01:52;98979.03;;;22.93;44.33
43312;BME280;30041;48.300;16.352;2023-04-25T03:04:17;98971.72;;;22.94;44.23
43312;BME280;30041;48.300;16.352;2023-04-25T03:06:43;98973.88;;;22.92;44.12
43312;BME280;30041;48.300;16.352;2023-04-25T03:09:08;98969.28;;;22.92;44.05
43312;BME280;30041;48.300;16.352;2023-04-25T03:11:33;98974.69;;;22.92;44.08
43312;BME280;30041;48.300;16.352;2023-04-25T03:13:59;98966.31;;;22.94;44.14
43312;BME280;30041;48.300;16.352;2023-04-25T03:16:24;98969.28;;;22.92;44.20
43312;BME280;30041;48.300;16.352;2023-04-25T03:18:50;98974.69;;;22.92;44.07
43312;BME280;30041;48.300;16.352;2023-04-25T03:21:15;98978.19;;;22.93;43.99
43312;BME280;30041;48.300;16.352;2023-04-25T03:23:41;98969.56;;;22.91;44.12
43312;BME280;30041;48.300;16.352;2023-04-25T03:26:06;98971.19;;;22.92;44.00
43312;BME280;30041;48.300;16.352;2023-04-25T03:28:32;98972.25;;;22.91;44.13
43312;BME280;30041;48.300;16.352;2023-04-25T03:30:57;98967.13;;;22.94;44.03
43312;BME280;30041;48.300;16.352;2023-04-25T03:33:22;98974.69;;;22.92;44.05
43312;BME280;30041;48.300;16.352;2023-04-25T03:35:48;98973.88;;;22.92;44.32
43312;BME280;30041;48.300;16.352;2023-04-25T03:38:13;98982.78;;;22.92;43.99
43312;BME280;30041;48.300;16.352;2023-04-25T03:40:39;98994.69;;;22.91;44.13
43312;BME280;30041;48.300;16.352;2023-04-25T03:43:04;98989.28;;;22.91;44.07
43312;BME280;30041;48.300;16.352;2023-04-25T03:45:30;98980.38;;;22.91;44.21
43312;BME280;30041;48.300;16.352;2023-04-25T03:47:55;98980.38;;;22.91;44.47
43312;BME280;30041;48.300;16.352;2023-04-25T03:50:21;98997.63;;;22.90;44.44
43312;BME280;30041;48.300;16.352;2023-04-25T03:52:46;98986.56;;;22.91;44.31
43312;BME280;30041;48.300;16.352;2023-04-25T03:55:11;98993.88;;;22.91;44.33
43312;BME280;30041;48.300;16.352;2023-04-25T03:57:37;98993.59;;;22.92;44.11
43312;BME280;30041;48.300;16.352;2023-04-25T04:00:03;98995.50;;;22.92;44.19
43312;BME280;30041;48.300;16.352;2023-04-25T04:02:28;98996.31;;;22.92;44.07
43312;BME280;30041;48.300;16.352;2023-04-25T04:04:54;99000.34;;;22.90;44.40
43312;BME280;30041;48.300;16.352;2023-04-25T04:07:19;98998.19;;;22.92;44.28
43312;BME280;30041;48.300;16.352;2023-04-25T04:09:45;99001.16;;;22.90;44.29
43312;BME280;30041;48.300;16.352;2023-04-25T04:12:10;99009.00;;;22.92;44.25
43312;BME280;30041;48.300;16.352;2023-04-25T04:14:36;99012.50;;;22.92;44.28
43312;BME280;30041;48.300;16.352;2023-04-25T04:17:01;98997.09;;;22.93;44.14
43312;BME280;30041;48.300;16.352;2023-04-25T04:19:27;99010.63;;;22.93;44.28
43312;BME280;30041;48.300;16.352;2023-04-25T04:21:52;99010.63;;;22.93;44.25
43312;BME280;30041;48.300;16.352;2023-04-25T04:24:17;99013.03;;;22.89;44.06
43312;BME280;30041;48.300;16.352;2023-04-25T04:26:43;99019.56;;;22.93;44.25
43312;BME280;30041;48.300;16.352;2023-04-25T04:29:08;99015.22;;;22.92;44.38
43312;BME280;30041;48.300;16.352;2023-04-25T04:31:34;99014.41;;;22.92;44.41
43312;BME280;30041;48.300;16.352;2023-04-25T04:33:59;99017.91;;;22.92;44.29
43312;BME280;30041;48.300;16.352;2023-04-25T04:36:25;99016.03;;;22.93;44.10
43312;BME280;30041;48.300;16.352;2023-04-25T04:38:50;99019.56;;;22.93;44.14
43312;BME280;30041;48.300;16.352;2023-04-25T04:41:16;99028.47;;;22.94;44.34
43312;BME280;30041;48.300;16.352;2023-04-25T04:43:41;99027.91;;;22.92;44.18
43312;BME280;30041;48.300;16.352;2023-04-25T04:46:07;99021.72;;;22.91;43.93
43312;BME280;30041;48.300;16.352;2023-04-25T04:48:32;99026.56;;;22.94;44.13
43312;BME280;30041;48.300;16.352;2023-04-25T04:50:58;99023.31;;;22.92;44.11
43312;BME280;30041;48.300;16.352;2023-04-25T04:53:24;99034.94;;;22.93;44.34
43312;BME280;30041;48.300;16.352;2023-04-25T04:55:49;99027.66;;;22.93;44.30
43312;BME280;30041;48.300;16.352;2023-04-25T04:58:14;99033.06;;;22.93;44.17
43312;BME280;30041;48.300;16.352;2023-04-25T05:00:40;99028.72;;;22.92;44.29
43312;BME280;30041;48.300;16.352;2023-04-25T05:03:05;99023.91;;;22.99;44.01
43312;BME280;30041;48.300;16.352;2023-04-25T05:05:31;99026.94;;;23.03;44.09
43312;BME280;30041;48.300;16.352;2023-04-25T05:07:56;99021.53;;;23.03;44.15
43312;BME280;30041;48.300;16.352;2023-04-25T05:10:22;99025.31;;;23.02;43.99
43312;BME280;30041;48.300;16.352;2023-04-25T05:12:47;99025.31;;;23.02;44.21
43312;BME280;30041;48.300;16.352;2023-04-25T05:15:13;99030.44;;;23.04;43.90
43312;BME280;30041;48.300;16.352;2023-04-25T05:17:39;99026.94;;;23.03;43.93
43312;BME280;30041;48.300;16.352;2023-04-25T05:20:06;99020.16;;;23.00;44.37
43312;BME280;30041;48.300;16.352;2023-04-25T05:22:32;99034.22;;;23.03;44.17
43312;BME280;30041;48.300;16.352;2023-04-25T05:24:57;99028.81;;;23.03;44.07
43312;BME280;30041;48.300;16.352;2023-04-25T05:27:23;99028.81;;;23.03;44.05
43312;BME280;30041;48.300;16.352;2023-04-25T05:29:49;99030.19;;;23.05;44.24
43312;BME280;30041;48.300;16.352;2023-04-25T05:32:14;99027.47;;;23.05;44.16
43312;BME280;30041;48.300;16.352;2023-04-25T05:34:40;99025.03;;;23.04;44.29
43312;BME280;30041;48.300;16.352;2023-04-25T05:37:07;99025.59;;;23.06;44.38
43312;BME280;30041;48.300;16.352;2023-04-25T05:39:33;99016.91;;;23.04;43.96
43312;BME280;30041;48.300;16.352;2023-04-25T05:41:58;99028.28;;;23.06;44.09
43312;BME280;30041;48.300;16.352;2023-04-25T05:44:24;99022.06;;;23.05;44.26
43312;BME280;30041;48.300;16.352;2023-04-25T05:46:49;99019.38;;;23.05;43.95
43312;BME280;30041;48.300;16.352;2023-04-25T05:49:15;99017.47;;;23.06;44.26
43312;BME280;30041;48.300;16.352;2023-04-25T05:51:40;99022.31;;;23.04;43.97
43312;BME280;30041;48.300;16.352;2023-04-25T05:54:06;99019.38;;;23.05;44.27
43312;BME280;30041;48.300;16.352;2023-04-25T05:56:31;99025.59;;;23.06;43.90
43312;BME280;30041;48.300;16.352;2023-04-25T05:58:57;99024.78;;;23.05;43.93
43312;BME280;30041;48.300;16.352;2023-04-25T06:01:23;99023.69;;;23.06;44.19
43312;BME280;30041;48.300;16.352;2023-04-25T06:03:48;99024.25;;;23.08;43.97
43312;BME280;30041;48.300;16.352;2023-04-25T06:06:14;99024.25;;;23.08;44.06
43312;BME280;30041;48.300;16.352;2023-04-25T06:08:40;99028.84;;;23.08;43.99
43312;BME280;30041;48.300;16.352;2023-04-25T06:11:05;99026.94;;;23.08;44.21
43312;BME280;30041;48.300;16.352;2023-04-25T06:13:31;99021.81;;;23.07;44.17
43312;BME280;30041;48.300;16.352;2023-04-25T06:15:57;99015.06;;;23.09;44.28
43312;BME280;30041;48.300;16.352;2023-04-25T06:18:22;99008.03;;;23.08;43.83
43312;BME280;30041;48.300;16.352;2023-04-25T06:20:48;99013.44;;;23.08;44.10
43312;BME280;30041;48.300;16.352;2023-04-25T06:23:13;99008.03;;;23.08;43.98
43312;BME280;30041;48.300;16.352;2023-04-25T06:25:38;99014.25;;;23.09;43.95
43312;BME280;30041;48.300;16.352;2023-04-25T06:28:04;99008.31;;;23.07;43.92
43312;BME280;30041;48.300;16.352;2023-04-25T06:30:29;99002.91;;;23.07;43.98
43312;BME280;30041;48.300;16.352;2023-04-25T06:32:55;99008.03;;;23.08;44.36
43312;BME280;30041;48.300;16.352;2023-04-25T06:35:20;99003.47;;;23.09;44.22
43312;BME280;30041;48.300;16.352;2023-04-25T06:37:46;99004.50;;;23.08;44.19
43312;BME280;30041;48.300;16.352;2023-04-25T06:40:12;98998.06;;;23.09;44.26
43312;BME280;30041;48.300;16.352;2023-04-25T06:42:37;98997.22;;;23.08;44.21
43312;BME280;30041;48.300;16.352;2023-04-25T06:45:03;99000.75;;;23.09;44.29
43312;BME280;30041;48.300;16.352;2023-04-25T06:47:28;99000.47;;;23.10;43.86
43312;BME280;30041;48.300;16.352;2023-04-25T06:49:54;98998.84;;;23.09;44.21
43312;BME280;30041;48.300;16.352;2023-04-25T06:52:19;98997.22;;;23.08;44.28
43312;BME280;30041;48.300;16.352;2023-04-25T06:54:45;98987.25;;;23.09;44.23
43312;BME280;30041;48.300;16.352;2023-04-25T06:57:10;98988.03;;;23.09;44.01
43312;BME280;30041;48.300;16.352;2023-04-25T06:59:36;98989.38;;;23.07;44.12
43312;BME280;30041;48.300;16.352;2023-04-25T07:02:01;98980.19;;;23.08;44.16
43312;BME280;30041;48.300;16.352;2023-04-25T07:04:26;98985.59;;;23.08;43.98
43312;BME280;30041;48.300;16.352;2023-04-25T07:06:52;98981.00;;;23.08;44.39
43312;BME280;30041;48.300;16.352;2023-04-25T07:09:17;98987.78;;;23.11;44.20
43312;BME280;30041;48.300;16.352;2023-04-25T07:11:43;98975.63;;;23.13;44.02
43312;BME280;30041;48.300;16.352;2023-04-25T07:14:08;98968.03;;;23.10;43.97
43312;BME280;30041;48.300;16.352;2023-04-25T07:16:34;98967.22;;;23.10;43.98
43312;BME280;30041;48.300;16.352;2023-04-25T07:18:59;98963.47;;;23.11;43.95
43312;BME280;30041;48.300;16.352;2023-04-25T07:21:25;98972.63;;;23.10;44.32
43312;BME280;30041;48.300;16.352;2023-04-25T07:23:50;98969.38;;;23.08;44.17
43312;BME280;30041;48.300;16.352;2023-04-25T07:26:16;98975.09;;;23.11;43.96
43312;BME280;30041;48.300;16.352;2023-04-25T07:28:42;98974.28;;;23.11;43.94
43312;BME280;30041;48.300;16.352;2023-04-25T07:31:07;98971.03;;;23.09;44.11
43312;BME280;30041;48.300;16.352;2023-04-25T07:33:33;98967.22;;;23.10;44.14
43312;BME280;30041;48.300;16.352;2023-04-25T07:35:59;98963.19;;;23.12;44.23
43312;BME280;30041;48.300;16.352;2023-04-25T07:38:24;98961.56;;;23.11;44.06
43312;BME280;30041;48.300;16.352;2023-04-25T07:40:50;98958.56;;;23.13;44.17
43312;BME280;30041;48.300;16.352;2023-04-25T07:43:15;98958.88;;;23.11;44.13
43312;BME280;30041;48.300;16.352;2023-04-25T07:45:41;98954.53;;;23.10;44.03
43312;BME280;30041;48.300;16.352;2023-04-25T07:48:06;98956.97;;;23.12;44.22
43312;BME280;30041;48.300;16.352;2023-04-25T07:50:32;98967.78;;;23.12;44.29
43312;BME280;30041;48.300;16.352;2023-04-25T07:52:57;98961.28;;;23.08;44.03
43312;BME280;30041;48.300;16.352;2023-04-25T07:55:22;98957.50;;;23.09;43.89
43312;BME280;30041;48.300;16.352;2023-04-25T07:57:48;98954.53;;;23.10;44.01
43312;BME280;30041;48.300;16.352;2023-04-25T08:00:14;98956.97;;;23.12;43.99
43312;BME280;30041;48.300;16.352;2023-04-25T08:02:39;98944.53;;;23.11;43.87
43312;BME280;30041;48.300;16.352;2023-04-25T08:05:05;98946.41;;;23.10;44.22
43312;BME280;30041;48.300;16.352;2023-04-25T08:07:31;98945.34;;;23.11;44.08
43312;BME280;30041;48.300;16.352;2023-04-25T08:09:56;98936.97;;;23.13;43.75
43312;BME280;30041;48.300;16.352;2023-04-25T08:12:22;98936.44;;;23.11;44.21
43312;BME280;30041;48.300;16.352;2023-04-25T08:14:48;98940.19;;;23.10;44.11
43312;BME280;30041;48.300;16.352;2023-04-25T08:17:13;98934.00;;;23.09;44.14
43312;BME280;30041;48.300;16.352;2023-04-25T08:19:39;98935.59;;;23.10;44.04
43312;BME280;30041;48.300;16.352;2023-04-25T08:22:04;98932.34;;;23.08;44.15
43312;BME280;30041;48.300;16.352;2023-04-25T08:24:30;98936.44;;;23.11;44.18
43312;BME280;30041;48.300;16.352;2023-04-25T08:26:55;98936.44;;;23.11;44.07
43312;BME280;30041;48.300;16.352;2023-04-25T08:29:20;98933.72;;;23.11;44.07
43312;BME280;30041;48.300;16.352;2023-04-25T08:31:46;98924.53;;;23.12;44.29
43312;BME280;30041;48.300;16.352;2023-04-25T08:34:12;98932.63;;;23.12;44.15
43312;BME280;30041;48.300;16.352;2023-04-25T08:36:38;98923.44;;;23.13;43.85
43312;BME280;30041;48.300;16.352;2023-04-25T08:39:04;98920.47;;;23.09;44.03
43312;BME280;30041;48.300;16.352;2023-04-25T08:41:30;98910.22;;;23.11;43.93
43312;BME280;30041;48.300;16.352;2023-04-25T08:43:56;98909.94;;;23.13;43.92
43312;BME280;30041;48.300;16.352;2023-04-25T08:46:23;98920.22;;;23.11;44.18
43312;BME280;30041;48.300;16.352;2023-04-25T08:48:48;98911.00;;;23.12;44.10
43312;BME280;30041;48.300;16.352;2023-04-25T08:51:23;98911.56;;;23.09;43.84
43312;BME280;30041;48.300;16.352;2023-04-25T08:53:51;98927.50;;;23.10;44.06
43312;BME280;30041;48.300;16.352;2023-04-25T08:56:17;98921.56;;;23.13;43.98
43312;BME280;30041;48.300;16.352;2023-04-25T08:58:43;98916.41;;;23.12;44.20
43312;BME280;30041;48.300;16.352;2023-04-25T09:01:09;98922.91;;;23.11;43.90
43312;BME280;30041;48.300;16.352;2023-04-25T09:03:35;98916.41;;;23.12;43.78
43312;BME280;30041;48.300;16.352;2023-04-25T09:06:01;98919.69;;;23.14;43.84
43312;BME280;30041;48.300;16.352;2023-04-25T09:08:27;98919.69;;;23.14;44.01
43312;BME280;30041;48.300;16.352;2023-04-25T09:10:52;98903.72;;;23.12;44.10
43312;BME280;30041;48.300;16.352;2023-04-25T09:13:25;98913.47;;;23.13;43.74
43312;BME280;30041;48.300;16.352;2023-04-25T09:15:55;98902.09;;;23.11;43.70
43312;BME280;30041;48.300;16.352;2023-04-25T09:18:34;98911.81;;;23.12;43.79
43312;BME280;30041;48.300;16.352;2023-04-25T09:21:10;98904.53;;;23.13;43.87
43312;BME280;30041;48.300;16.352;2023-04-25T09:23:41;98906.41;;;23.12;43.76
43312;BME280;30041;48.300;16.352;2023-04-25T09:26:07;98907.22;;;23.13;44.03
43312;BME280;30041;48.300;16.352;2023-04-25T09:28:33;98914.28;;;23.14;43.93
43312;BME280;30041;48.300;16.352;2023-04-25T09:30:58;98909.94;;;23.13;43.94
43312;BME280;30041;48.300;16.352;2023-04-25T09:33:28;98904.00;;;23.11;43.89
43312;BME280;30041;48.300;16.352;2023-04-25T09:36:02;98911.56;;;23.14;43.68
43312;BME280;30041;48.300;16.352;2023-04-25T09:38:30;98905.91;;;23.15;43.74
43312;BME280;30041;48.300;16.352;2023-04-25T09:40:56;98909.13;;;23.12;43.86
43312;BME280;30041;48.300;16.352;2023-04-25T09:43:23;98922.38;;;23.14;44.08
43312;BME280;30041;48.300;16.352;2023-04-25T09:45:52;98935.91;;;23.14;43.99
43312;BME280;30041;48.300;16.352;2023-04-25T09:48:19;98938.59;;;23.14;43.98
43312;BME280;30041;48.300;16.352;2023-04-25T09:50:45;98960.22;;;23.14;43.94
43312;BME280;30041;48.300;16.352;2023-04-25T09:53:10;98973.72;;;23.14;43.99
43312;BME280;30041;48.300;16.352;2023-04-25T09:55:36;98975.88;;;23.12;43.63
43312;BME280;30041;48.300;16.352;2023-04-25T09:58:06;98981.28;;;23.12;44.00
43312;BME280;30041;48.300;16.352;2023-04-25T10:00:34;98969.38;;;23.13;43.69
43312;BME280;30041;48.300;16.352;2023-04-25T10:03:01;98952.66;;;23.11;43.99
43312;BME280;30041;48.300;16.352;2023-04-25T10:05:30;98951.00;;;23.10;44.01
43312;BME280;30041;48.300;16.352;2023-04-25T10:07:59;98940.19;;;23.10;44.11
43312;BME280;30041;48.300;16.352;2023-04-25T10:10:28;98941.84;;;23.11;44.04
43312;BME280;30041;48.300;16.352;2023-04-25T10:12:55;98937.50;;;23.10;43.91
43312;BME280;30041;48.300;16.352;2023-04-25T10:15:21;98938.31;;;23.10;44.08
43312;BME280;30041;48.300;16.352;2023-04-25T10:17:48;98933.72;;;23.11;43.88
43312;BME280;30041;48.300;16.352;2023-04-25T10:20:14;98928.31;;;23.11;43.92
43312;BME280;30041;48.300;16.352;2023-04-25T10:22:45;98920.22;;;23.11;43.94
43312;BME280;30041;48.300;16.352;2023-04-25T10:25:11;98921.56;;;23.13;43.72
43312;BME280;30041;48.300;16.352;2023-04-25T10:27:38;98911.56;;;23.14;43.71
43312;BME280;30041;48.300;16.352;2023-04-25T10:30:09;98908.31;;;23.12;43.72
43312;BME280;30041;48.300;16.352;2023-04-25T10:32:35;98908.06;;;23.13;43.79
43312;BME280;30041;48.300;16.352;2023-04-25T10:35:30;98909.41;;;23.11;43.76
43312;BME280;30041;48.300;16.352;2023-04-25T10:38:09;98897.50;;;23.12;43.94
43312;BME280;30041;48.300;16.352;2023-04-25T10:40:35;98898.84;;;23.14;43.92
43312;BME280;30041;48.300;16.352;2023-04-25T10:45:59;98885.34;;;23.14;43.60
43312;BME280;30041;48.300;16.352;2023-04-25T10:48:26;98881.84;;;23.14;43.71
43312;BME280;30041;48.300;16.352;2023-04-25T10:51:10;98883.19;;;23.11;43.59
43312;BME280;30041;48.300;16.352;2023-04-25T10:53:36;98880.19;;;23.13;43.89
43312;BME280;30041;48.300;16.352;2023-04-25T10:56:18;98881.03;;;23.13;43.57
43312;BME280;30041;48.300;16.352;2023-04-25T10:58:45;98874.81;;;23.18;43.77
43312;BME280;30041;48.300;16.352;2023-04-25T11:01:12;98877.50;;;23.13;44.00
43312;BME280;30041;48.300;16.352;2023-04-25T11:03:40;98882.63;;;23.14;43.65
43312;BME280;30041;48.300;16.352;2023-04-25T11:06:17;98869.38;;;23.13;43.64
43312;BME280;30041;48.300;16.352;2023-04-25T11:08:50;98881.84;;;23.14;43.54
43312;BME280;30041;48.300;16.352;2023-04-25T11:11:19;98886.44;;;23.13;43.72
43312;BME280;30041;48.300;16.352;2023-04-25T11:13:48;98871.03;;;23.14;43.73
43312;BME280;30041;48.300;16.352;2023-04-25T11:16:14;98892.66;;;23.14;43.73
43312;BME280;30041;48.300;16.352;2023-04-25T11:18:44;98891.00;;;23.13;43.83
43312;BME280;30041;48.300;16.352;2023-04-25T11:21:10;98893.44;;;23.14;43.57
43312;BME280;30041;48.300;16.352;2023-04-25T11:23:36;98897.50;;;23.12;43.65
43312;BME280;30041;48.300;16.352;2023-04-25T11:26:02;98892.66;;;23.14;43.66
43312;BME280;30041;48.300;16.352;2023-04-25T11:28:28;98891.84;;;23.13;43.71
43312;BME280;30041;48.300;16.352;2023-04-25T11:30:54;98889.13;;;23.13;43.68
43312;BME280;30041;48.300;16.352;2023-04-25T11:33:23;98891.56;;;23.10;43.80
43312;BME280;30041;48.300;16.352;2023-04-25T11:35:49;98900.22;;;23.12;43.72
43312;BME280;30041;48.300;16.352;2023-04-25T11:38:15;98904.00;;;23.11;43.65
43312;BME280;30041;48.300;16.352;2023-04-25T11:40:40;98900.47;;;23.10;43.63
43312;BME280;30041;48.300;16.352;2023-04-25T11:43:06;98909.94;;;23.13;43.83
43312;BME280;30041;48.300;16.352;2023-04-25T11:45:31;98920.72;;;23.13;43.62
43312;BME280;30041;48.300;16.352;2023-04-25T11:47:57;98920.72;;;23.13;43.87
43312;BME280;30041;48.300;16.352;2023-04-25T11:50:22;98925.09;;;23.14;43.51
43312;BME280;30041;48.300;16.352;2023-04-25T11:52:48;98925.34;;;23.12;43.61
43312;BME280;30041;48.300;16.352;2023-04-25T11:55:16;98925.09;;;23.14;43.47
43312;BME280;30041;48.300;16.352;2023-04-25T11:57:43;98917.78;;;23.14;43.70
43312;BME280;30041;48.300;16.352;2023-04-25T12:02:35;98914.53;;;23.12;43.54
43312;BME280;30041;48.300;16.352;2023-04-25T12:05:01;98918.31;;;23.16;43.76
43312;BME280;30041;48.300;16.352;2023-04-25T12:07:29;98921.84;;;23.17;43.75
43312;BME280;30041;48.300;16.352;2023-04-25T12:09:55;98913.72;;;23.17;43.55
43312;BME280;30041;48.300;16.352;2023-04-25T12:12:20;98914.28;;;23.19;43.79
43312;BME280;30041;48.300;16.352;2023-04-25T12:14:47;98916.97;;;23.19;43.37
43312;BME280;30041;48.300;16.352;2023-04-25T12:17:12;98904.00;;;23.21;43.38
43312;BME280;30041;48.300;16.352;2023-04-25T12:19:38;98916.72;;;23.20;43.56
43312;BME280;30041;48.300;16.352;2023-04-25T12:22:19;98906.16;;;23.19;43.55
43312;BME280;30041;48.300;16.352;2023-04-25T12:24:45;98907.81;;;23.20;43.62
43312;BME280;30041;48.300;16.352;2023-04-25T12:27:10;98919.16;;;23.22;43.60
43312;BME280;30041;48.300;16.352;2023-04-25T12:29:35;98910.22;;;23.21;43.54
43312;BME280;30041;48.300;16.352;2023-04-25T12:32:01;98917.53;;;23.21;43.56
43312;BME280;30041;48.300;16.352;2023-04-25T12:34:27;98915.63;;;23.21;43.68
43312;BME280;30041;48.300;16.352;2023-04-25T12:36:52;98911.06;;;23.22;43.27
43312;BME280;30041;48.300;16.352;2023-04-25T12:39:20;98910.22;;;23.21;43.29
43312;BME280;30041;48.300;16.352;2023-04-25T12:41:47;98907.81;;;23.20;43.51
43312;BME280;30041;48.300;16.352;2023-04-25T12:44:12;98905.09;;;23.25;43.37
43312;BME280;30041;48.300;16.352;2023-04-25T12:46:38;98901.06;;;23.23;43.42
43312;BME280;30041;48.300;16.352;2023-04-25T12:49:04;98894.28;;;23.25;43.53
43312;BME280;30041;48.300;16.352;2023-04-25T12:51:30;98888.88;;;23.25;43.47